AFR410 LFPG-SBGL
Flight info
| Callsign | AFR410 |
|---|---|
| Flight time | N/A |
| Altitude | 31000 |
| Route | LGL UT176 TERPO UN872 ERIGA UZ218 FUJTI DCT ATLEN/N0430F230 N872 RALUS UN872 ESP/N0407F190 W8 BAROK/N0489F330 UN873 SAMAR N873 ODEGI/N0491F340 N873 IPERA/N0446F240 B623 CVS/N0477F280 UB623 RAKUD/N0447F240 B623 FNR/N0492F360 UN857 MUDSI/N0485F380 UN857 MOLSU |
| Aircraft | B772/H-SDE2E3FGHIJ5LORVWXY/LB1D1 |
Departure
| Time | 2026-04-30 12:28 |
|---|---|
| Airport | Charles de Gaulle International Airport (LFPG) |
Arrival
| Time | N/A |
|---|---|
| Airport | Rio Galeão – Tom Jobim International Airport (SBGL) |
| Time | Latitude | Longitude | Altitude | Speed | Heading |
|---|---|---|---|---|---|
| 2026-04-30 11:56 | 49.00179 | 2.56563 | 359 ft | 0 kts | 18° |
| 2026-04-30 12:21 | 49.00174 | 2.56561 | 366 ft | 4 kts | 18° |
| 2026-04-30 12:22 | 49.00148 | 2.56548 | 359 ft | 4 kts | 17° |
| 2026-04-30 12:22 | 49.00125 | 2.56537 | 366 ft | 3 kts | 18° |
| 2026-04-30 12:22 | 49.00110 | 2.56528 | 365 ft | 4 kts | 49° |
| 2026-04-30 12:22 | 49.00105 | 2.56496 | 359 ft | 4 kts | 98° |
| 2026-04-30 12:23 | 49.00106 | 2.56473 | 365 ft | 0 kts | 87° |
| 2026-04-30 12:24 | 49.00108 | 2.56494 | 361 ft | 6 kts | 85° |
| 2026-04-30 12:24 | 49.00085 | 2.56552 | 366 ft | 9 kts | 149° |
| 2026-04-30 12:25 | 49.00006 | 2.56575 | 365 ft | 12 kts | 174° |
| 2026-04-30 12:25 | 48.99920 | 2.56587 | 364 ft | 12 kts | 176° |
| 2026-04-30 12:25 | 48.99842 | 2.56557 | 366 ft | 12 kts | 233° |
| 2026-04-30 12:25 | 48.99822 | 2.56421 | 362 ft | 15 kts | 265° |
| 2026-04-30 12:26 | 48.99813 | 2.56262 | 365 ft | 15 kts | 262° |
| 2026-04-30 12:26 | 48.99803 | 2.56103 | 366 ft | 15 kts | 266° |
| 2026-04-30 12:26 | 48.99797 | 2.55944 | 364 ft | 15 kts | 262° |
| 2026-04-30 12:26 | 48.99750 | 2.55822 | 365 ft | 13 kts | 203° |
| 2026-04-30 12:27 | 48.99660 | 2.55821 | 364 ft | 13 kts | 175° |
| 2026-04-30 12:27 | 48.99605 | 2.55915 | 358 ft | 13 kts | 94° |
| 2026-04-30 12:27 | 48.99614 | 2.56093 | 367 ft | 34 kts | 85° |
| 2026-04-30 12:27 | 48.99653 | 2.56827 | 361 ft | 104 kts | 85° |
| 2026-04-30 12:28 | 48.99722 | 2.58242 | 367 ft | 160 kts | 86° |
| 2026-04-30 12:28 | 48.99803 | 2.59995 | 883 ft | 168 kts | 86° |
| 2026-04-30 12:28 | 48.99886 | 2.61764 | 1759 ft | 169 kts | 86° |
| 2026-04-30 12:28 | 48.99988 | 2.63587 | 2309 ft | 180 kts | 85° |
| 2026-04-30 12:29 | 49.00094 | 2.65599 | 2493 ft | 201 kts | 88° |
| 2026-04-30 12:29 | 49.00143 | 2.67846 | 2606 ft | 223 kts | 89° |
| 2026-04-30 12:29 | 49.00042 | 2.70219 | 2964 ft | 228 kts | 109° |
| 2026-04-30 12:29 | 48.99194 | 2.72257 | 3423 ft | 231 kts | 140° |
| 2026-04-30 12:30 | 48.97756 | 2.73347 | 3883 ft | 240 kts | 164° |
| 2026-04-30 12:30 | 48.96053 | 2.73292 | 4338 ft | 254 kts | 192° |
| 2026-04-30 12:30 | 48.94472 | 2.72037 | 4985 ft | 262 kts | 216° |
| 2026-04-30 12:30 | 48.93275 | 2.69886 | 5514 ft | 273 kts | 238° |
| 2026-04-30 12:31 | 48.92708 | 2.67124 | 6065 ft | 276 kts | 257° |
| 2026-04-30 12:31 | 48.92298 | 2.64257 | 6468 ft | 279 kts | 251° |
| 2026-04-30 12:31 | 48.91754 | 2.61411 | 6995 ft | 283 kts | 249° |
| 2026-04-30 12:31 | 48.91186 | 2.58552 | 7579 ft | 282 kts | 249° |
| 2026-04-30 12:32 | 48.90625 | 2.55685 | 8096 ft | 283 kts | 250° |
| 2026-04-30 12:32 | 48.90064 | 2.52790 | 8571 ft | 286 kts | 251° |
| 2026-04-30 12:32 | 48.89516 | 2.49924 | 9079 ft | 287 kts | 252° |
| 2026-04-30 12:32 | 48.88954 | 2.46933 | 9511 ft | 292 kts | 252° |
| 2026-04-30 12:33 | 48.88405 | 2.44004 | 10005 ft | 294 kts | 250° |
| 2026-04-30 12:33 | 48.87838 | 2.40984 | 10306 ft | 302 kts | 251° |
| 2026-04-30 12:33 | 48.87248 | 2.37843 | 10437 ft | 315 kts | 249° |
| 2026-04-30 12:33 | 48.86313 | 2.34797 | 10536 ft | 324 kts | 233° |
| 2026-04-30 12:34 | 48.84990 | 2.31930 | 10645 ft | 339 kts | 232° |
| 2026-04-30 12:34 | 48.83570 | 2.28957 | 10795 ft | 356 kts | 231° |
| 2026-04-30 12:34 | 48.82084 | 2.25823 | 11011 ft | 372 kts | 231° |
| 2026-04-30 12:34 | 48.80568 | 2.22587 | 11495 ft | 380 kts | 232° |
| 2026-04-30 12:35 | 48.79037 | 2.19273 | 12014 ft | 387 kts | 232° |
| 2026-04-30 12:35 | 48.77490 | 2.15899 | 12669 ft | 391 kts | 232° |
| 2026-04-30 12:35 | 48.75940 | 2.12496 | 13342 ft | 394 kts | 233° |
| 2026-04-30 12:35 | 48.74373 | 2.09056 | 13945 ft | 399 kts | 233° |
| 2026-04-30 12:36 | 48.72802 | 2.05610 | 14473 ft | 404 kts | 232° |
| 2026-04-30 12:36 | 48.71203 | 2.02100 | 15078 ft | 405 kts | 232° |
| 2026-04-30 12:36 | 48.69593 | 1.98569 | 15690 ft | 407 kts | 232° |
| 2026-04-30 12:36 | 48.67977 | 1.95027 | 16229 ft | 411 kts | 232° |
| 2026-04-30 12:37 | 48.66345 | 1.91456 | 16748 ft | 414 kts | 232° |
| 2026-04-30 12:37 | 48.64699 | 1.87862 | 17277 ft | 417 kts | 232° |
| 2026-04-30 12:37 | 48.63043 | 1.84250 | 17778 ft | 420 kts | 232° |
| 2026-04-30 12:37 | 48.61369 | 1.80603 | 18279 ft | 424 kts | 232° |
| 2026-04-30 12:38 | 48.59681 | 1.76926 | 18739 ft | 427 kts | 232° |
| 2026-04-30 12:38 | 48.57979 | 1.73230 | 19150 ft | 430 kts | 232° |
| 2026-04-30 12:38 | 48.56262 | 1.69508 | 19551 ft | 433 kts | 231° |
| 2026-04-30 12:38 | 48.54534 | 1.65765 | 19953 ft | 436 kts | 231° |
| 2026-04-30 12:39 | 48.52791 | 1.61993 | 20363 ft | 439 kts | 231° |
| 2026-04-30 12:39 | 48.51036 | 1.58201 | 20764 ft | 442 kts | 231° |
| 2026-04-30 12:39 | 48.49271 | 1.54392 | 21151 ft | 445 kts | 231° |
| 2026-04-30 12:39 | 48.47495 | 1.50564 | 21535 ft | 448 kts | 231° |
| 2026-04-30 12:40 | 48.45701 | 1.46706 | 21914 ft | 451 kts | 231° |
| 2026-04-30 12:40 | 48.43917 | 1.42875 | 22299 ft | 453 kts | 231° |
| 2026-04-30 12:40 | 48.42099 | 1.38975 | 22698 ft | 456 kts | 231° |
| 2026-04-30 12:40 | 48.40271 | 1.35059 | 23091 ft | 458 kts | 231° |
| 2026-04-30 12:41 | 48.38432 | 1.31118 | 23475 ft | 461 kts | 231° |
| 2026-04-30 12:41 | 48.36580 | 1.27161 | 23838 ft | 462 kts | 231° |
| 2026-04-30 12:41 | 48.34724 | 1.23209 | 24251 ft | 462 kts | 231° |
| 2026-04-30 12:41 | 48.32863 | 1.19245 | 24618 ft | 463 kts | 231° |
| 2026-04-30 12:42 | 48.31003 | 1.15284 | 24930 ft | 465 kts | 231° |
| 2026-04-30 12:42 | 48.29129 | 1.11304 | 25234 ft | 467 kts | 231° |
| 2026-04-30 12:42 | 48.27267 | 1.07360 | 25539 ft | 469 kts | 231° |
| 2026-04-30 12:42 | 48.25375 | 1.03355 | 25877 ft | 471 kts | 232° |
| 2026-04-30 12:43 | 48.23476 | 0.99336 | 26215 ft | 472 kts | 232° |
| 2026-04-30 12:43 | 48.21577 | 0.95325 | 26536 ft | 473 kts | 232° |
| 2026-04-30 12:43 | 48.19661 | 0.91289 | 26883 ft | 474 kts | 232° |
| 2026-04-30 12:43 | 48.17745 | 0.87257 | 27196 ft | 475 kts | 232° |
| 2026-04-30 12:44 | 48.15821 | 0.83215 | 27494 ft | 477 kts | 232° |
| 2026-04-30 12:44 | 48.13888 | 0.79155 | 27764 ft | 480 kts | 232° |
| 2026-04-30 12:44 | 48.11940 | 0.75077 | 28033 ft | 481 kts | 232° |
| 2026-04-30 12:44 | 48.09990 | 0.70995 | 28310 ft | 483 kts | 232° |
| 2026-04-30 12:45 | 48.08057 | 0.66956 | 28589 ft | 484 kts | 233° |
| 2026-04-30 12:45 | 48.06080 | 0.62834 | 28836 ft | 486 kts | 233° |
| 2026-04-30 12:45 | 48.04107 | 0.58726 | 29077 ft | 486 kts | 233° |
| 2026-04-30 12:45 | 48.02129 | 0.54611 | 29316 ft | 488 kts | 233° |
| 2026-04-30 12:46 | 48.00143 | 0.50487 | 29518 ft | 491 kts | 232° |
| 2026-04-30 12:46 | 47.98142 | 0.46338 | 29670 ft | 493 kts | 233° |
| 2026-04-30 12:46 | 47.96132 | 0.42173 | 29928 ft | 495 kts | 232° |
| 2026-04-30 12:46 | 47.94123 | 0.38019 | 30314 ft | 492 kts | 232° |
| 2026-04-30 12:47 | 47.92123 | 0.33893 | 30641 ft | 490 kts | 232° |
| 2026-04-30 12:47 | 47.90125 | 0.29775 | 30879 ft | 490 kts | 232° |
| 2026-04-30 12:47 | 47.88129 | 0.25669 | 31096 ft | 490 kts | 232° |
| 2026-04-30 12:47 | 47.86125 | 0.21556 | 31348 ft | 489 kts | 232° |
| 2026-04-30 12:48 | 47.84153 | 0.17511 | 31588 ft | 489 kts | 232° |
| 2026-04-30 12:48 | 47.82157 | 0.13420 | 31815 ft | 488 kts | 232° |
| 2026-04-30 12:48 | 47.80163 | 0.09338 | 32071 ft | 487 kts | 231° |
| 2026-04-30 12:48 | 47.78165 | 0.05254 | 32314 ft | 486 kts | 231° |
| 2026-04-30 12:49 | 47.76174 | 0.01191 | 32532 ft | 486 kts | 231° |
| 2026-04-30 12:49 | 47.74183 | -0.02861 | 32822 ft | 484 kts | 231° |
| 2026-04-30 12:49 | 47.72197 | -0.06899 | 33143 ft | 483 kts | 231° |
| 2026-04-30 12:49 | 47.70218 | -0.10916 | 33376 ft | 482 kts | 231° |
| 2026-04-30 12:50 | 47.68228 | -0.14946 | 33584 ft | 482 kts | 231° |
| 2026-04-30 12:50 | 47.66246 | -0.18954 | 33798 ft | 482 kts | 231° |
| 2026-04-30 12:50 | 47.64264 | -0.22960 | 34023 ft | 482 kts | 231° |
| 2026-04-30 12:50 | 47.62281 | -0.26967 | 34221 ft | 481 kts | 231° |
| 2026-04-30 12:51 | 47.60302 | -0.30960 | 34402 ft | 481 kts | 231° |
| 2026-04-30 12:51 | 47.58340 | -0.34908 | 34580 ft | 481 kts | 231° |
| 2026-04-30 12:51 | 47.56358 | -0.38892 | 34762 ft | 480 kts | 231° |
| 2026-04-30 12:51 | 47.54378 | -0.42864 | 34928 ft | 480 kts | 231° |
| 2026-04-30 12:52 | 47.50388 | -0.50850 | 35047 ft | 483 kts | 231° |
| 2026-04-30 12:52 | 47.46395 | -0.58826 | 35059 ft | 481 kts | 231° |
| 2026-04-30 12:53 | 47.42408 | -0.66768 | 35059 ft | 483 kts | 231° |
| 2026-04-30 12:53 | 47.38367 | -0.74782 | 35059 ft | 488 kts | 231° |
| 2026-04-30 12:54 | 47.34294 | -0.82840 | 35065 ft | 492 kts | 231° |
| 2026-04-30 12:54 | 47.30223 | -0.90883 | 35051 ft | 488 kts | 231° |
| 2026-04-30 12:55 | 47.26182 | -0.98834 | 35043 ft | 482 kts | 231° |
| 2026-04-30 12:55 | 47.22166 | -1.06714 | 35039 ft | 479 kts | 231° |
| 2026-04-30 12:56 | 47.18167 | -1.14542 | 35044 ft | 477 kts | 231° |
| 2026-04-30 12:56 | 47.14164 | -1.22344 | 35051 ft | 477 kts | 231° |
| 2026-04-30 12:57 | 47.10180 | -1.30094 | 35056 ft | 478 kts | 230° |
| 2026-04-30 12:57 | 47.06164 | -1.37890 | 35047 ft | 479 kts | 230° |